sensor_id;sensor_type;location;lat;lon;timestamp;pressure;altitude;pressure_sealevel;temperature;humidity
36222;BME280;22266;52.340;4.962;2024-01-06T00:00:02;100419.47;;;5.67;93.02
36222;BME280;22266;52.340;4.962;2024-01-06T00:02:37;100421.66;;;5.64;92.79
36222;BME280;22266;52.340;4.962;2024-01-06T00:05:04;100417.47;;;5.61;92.40
36222;BME280;22266;52.340;4.962;2024-01-06T00:07:31;100427.53;;;5.59;92.38
36222;BME280;22266;52.340;4.962;2024-01-06T00:09:57;100419.00;;;5.56;93.34
36222;BME280;22266;52.340;4.962;2024-01-06T00:12:24;100427.97;;;5.63;92.59
36222;BME280;22266;52.340;4.962;2024-01-06T00:14:50;100427.97;;;5.63;92.70
36222;BME280;22266;52.340;4.962;2024-01-06T00:17:17;100426.47;;;5.68;92.81
36222;BME280;22266;52.340;4.962;2024-01-06T00:19:44;100424.28;;;5.72;92.59
36222;BME280;22266;52.340;4.962;2024-01-06T00:22:11;100433.47;;;5.69;92.57
36222;BME280;22266;52.340;4.962;2024-01-06T00:24:37;100434.19;;;5.63;92.45
36222;BME280;22266;52.340;4.962;2024-01-06T00:27:04;100437.31;;;5.67;92.53
36222;BME280;22266;52.340;4.962;2024-01-06T00:29:31;100436.00;;;5.63;92.48
36222;BME280;22266;52.340;4.962;2024-01-06T00:31:57;100440.66;;;5.69;92.59
36222;BME280;22266;52.340;4.962;2024-01-06T00:34:24;100432.13;;;5.74;92.28
36222;BME280;22266;52.340;4.962;2024-01-06T00:36:50;100439.94;;;5.75;92.03
36222;BME280;22266;52.340;4.962;2024-01-06T00:39:17;100436.97;;;5.70;92.03
36222;BME280;22266;52.340;4.962;2024-01-06T00:41:45;100438.81;;;5.69;91.84
36222;BME280;22266;52.340;4.962;2024-01-06T00:44:15;100443.03;;;5.64;92.56
36222;BME280;22266;52.340;4.962;2024-01-06T00:46:45;100436.47;;;5.66;92.51
36222;BME280;22266;52.340;4.962;2024-01-06T00:49:14;100435.84;;;5.64;92.61
36222;BME280;22266;52.340;4.962;2024-01-06T00:51:44;100449.53;;;5.53;91.82
36222;BME280;22266;52.340;4.962;2024-01-06T00:54:15;100446.56;;;5.48;93.42
36222;BME280;22266;52.340;4.962;2024-01-06T00:56:42;100447.09;;;5.43;93.24
36222;BME280;22266;52.340;4.962;2024-01-06T00:59:11;100455.25;;;5.34;93.09
36222;BME280;22266;52.340;4.962;2024-01-06T01:01:37;100465.09;;;5.33;93.42
36222;BME280;22266;52.340;4.962;2024-01-06T01:04:05;100456.78;;;5.28;93.64
36222;BME280;22266;52.340;4.962;2024-01-06T01:06:36;100471.13;;;5.35;93.96
36222;BME280;22266;52.340;4.962;2024-01-06T01:09:04;100468.09;;;5.38;93.35
36222;BME280;22266;52.340;4.962;2024-01-06T01:11:31;100482.75;;;5.42;93.58
36222;BME280;22266;52.340;4.962;2024-01-06T01:13:58;100469.75;;;5.48;93.53
36222;BME280;22266;52.340;4.962;2024-01-06T01:16:28;100482.41;;;5.54;93.59
36222;BME280;22266;52.340;4.962;2024-01-06T01:18:59;100495.75;;;5.54;93.63
36222;BME280;22266;52.340;4.962;2024-01-06T01:21:35;100498.78;;;5.42;92.79
36222;BME280;22266;52.340;4.962;2024-01-06T01:24:11;100501.44;;;5.42;92.94
36222;BME280;22266;52.340;4.962;2024-01-06T01:26:38;100502.94;;;5.45;93.29
36222;BME280;22266;52.340;4.962;2024-01-06T01:29:05;100514.63;;;5.44;93.63
36222;BME280;22266;52.340;4.962;2024-01-06T01:31:32;100513.94;;;5.50;93.12
36222;BME280;22266;52.340;4.962;2024-01-06T01:34:29;100511.63;;;5.55;93.19
36222;BME280;22266;52.340;4.962;2024-01-06T01:37:06;100523.31;;;5.46;92.66
36222;BME280;22266;52.340;4.962;2024-01-06T01:39:33;100524.50;;;5.35;92.04
36222;BME280;22266;52.340;4.962;2024-01-06T01:41:59;100524.16;;;5.30;92.50
36222;BME280;22266;52.340;4.962;2024-01-06T01:44:26;100539.00;;;5.25;92.53
36222;BME280;22266;52.340;4.962;2024-01-06T01:46:53;100540.84;;;5.16;92.06
36222;BME280;22266;52.340;4.962;2024-01-06T01:49:19;100551.34;;;5.17;91.17
36222;BME280;22266;52.340;4.962;2024-01-06T01:51:47;100554.00;;;5.17;92.34
36222;BME280;22266;52.340;4.962;2024-01-06T01:54:14;100539.84;;;5.17;92.17
36222;BME280;22266;52.340;4.962;2024-01-06T01:56:41;100551.84;;;5.13;92.72
36222;BME280;22266;52.340;4.962;2024-01-06T01:59:13;100554.00;;;5.17;92.13
36222;BME280;22266;52.340;4.962;2024-01-06T02:01:40;100557.19;;;5.13;91.43
36222;BME280;22266;52.340;4.962;2024-01-06T02:04:08;100552.53;;;5.15;90.86
36222;BME280;22266;52.340;4.962;2024-01-06T02:06:34;100556.84;;;5.24;91.29
36222;BME280;22266;52.340;4.962;2024-01-06T02:09:01;100555.00;;;5.25;90.91
36222;BME280;22266;52.340;4.962;2024-01-06T02:11:28;100565.88;;;5.31;90.65
36222;BME280;22266;52.340;4.962;2024-01-06T02:13:55;100565.19;;;5.37;91.32
36222;BME280;22266;52.340;4.962;2024-01-06T02:16:21;100565.19;;;5.37;90.95
36222;BME280;22266;52.340;4.962;2024-01-06T02:18:48;100571.53;;;5.36;90.54
36222;BME280;22266;52.340;4.962;2024-01-06T02:21:16;100576.03;;;5.36;90.87
36222;BME280;22266;52.340;4.962;2024-01-06T02:23:44;100582.72;;;5.32;90.38
36222;BME280;22266;52.340;4.962;2024-01-06T02:26:10;100582.38;;;5.27;90.27
36222;BME280;22266;52.340;4.962;2024-01-06T02:28:37;100581.53;;;5.26;91.05
36222;BME280;22266;52.340;4.962;2024-01-06T02:31:04;100592.06;;;5.36;91.17
36222;BME280;22266;52.340;4.962;2024-01-06T02:33:31;100592.19;;;5.42;91.30
36222;BME280;22266;52.340;4.962;2024-01-06T02:35:58;100594.53;;;5.45;90.63
36222;BME280;22266;52.340;4.962;2024-01-06T02:38:24;100594.88;;;5.42;90.58
36222;BME280;22266;52.340;4.962;2024-01-06T02:40:51;100602.06;;;5.42;91.43
36222;BME280;22266;52.340;4.962;2024-01-06T02:43:17;100604.56;;;5.43;90.70
36222;BME280;22266;52.340;4.962;2024-01-06T02:45:44;100605.56;;;5.51;90.89
36222;BME280;22266;52.340;4.962;2024-01-06T02:48:13;100614.25;;;5.53;90.49
36222;BME280;22266;52.340;4.962;2024-01-06T02:50:39;100630.91;;;5.46;89.77
36222;BME280;22266;52.340;4.962;2024-01-06T02:53:06;100626.75;;;5.44;90.17
36222;BME280;22266;52.340;4.962;2024-01-06T02:55:33;100622.06;;;5.38;90.45
36222;BME280;22266;52.340;4.962;2024-01-06T02:57:59;100627.56;;;5.28;90.70
36222;BME280;22266;52.340;4.962;2024-01-06T03:00:26;100625.56;;;5.22;90.89
36222;BME280;22266;52.340;4.962;2024-01-06T03:02:52;100630.88;;;5.22;91.64
36222;BME280;22266;52.340;4.962;2024-01-06T03:05:19;100629.22;;;5.21;91.73
36222;BME280;22266;52.340;4.962;2024-01-06T03:07:45;100632.56;;;5.15;91.74
36222;BME280;22266;52.340;4.962;2024-01-06T03:10:12;100632.22;;;5.18;92.56
36222;BME280;22266;52.340;4.962;2024-01-06T03:12:39;100633.91;;;5.19;92.25
36222;BME280;22266;52.340;4.962;2024-01-06T03:15:06;100636.56;;;5.11;91.76
36222;BME280;22266;52.340;4.962;2024-01-06T03:17:33;100642.22;;;5.08;91.87
36222;BME280;22266;52.340;4.962;2024-01-06T03:19:59;100649.53;;;5.06;91.52
36222;BME280;22266;52.340;4.962;2024-01-06T03:22:26;100654.03;;;5.05;92.03
36222;BME280;22266;52.340;4.962;2024-01-06T03:24:53;100664.56;;;5.07;92.19
36222;BME280;22266;52.340;4.962;2024-01-06T03:27:19;100657.88;;;4.94;90.87
36222;BME280;22266;52.340;4.962;2024-01-06T03:29:46;100657.88;;;4.94;91.36
36222;BME280;22266;52.340;4.962;2024-01-06T03:32:13;100662.34;;;5.02;92.02
36222;BME280;22266;52.340;4.962;2024-01-06T03:34:41;100670.84;;;4.97;91.45
36222;BME280;22266;52.340;4.962;2024-01-06T03:37:07;100666.84;;;4.93;91.18
36222;BME280;22266;52.340;4.962;2024-01-06T03:39:34;100676.50;;;4.86;91.84
36222;BME280;22266;52.340;4.962;2024-01-06T03:42:01;100665.88;;;4.94;91.07
36222;BME280;22266;52.340;4.962;2024-01-06T03:44:29;100679.38;;;5.01;91.71
36222;BME280;22266;52.340;4.962;2024-01-06T03:46:57;100674.56;;;5.05;91.41
36222;BME280;22266;52.340;4.962;2024-01-06T03:49:24;100679.06;;;5.04;91.26
36222;BME280;22266;52.340;4.962;2024-01-06T03:51:51;100674.53;;;4.96;90.56
36222;BME280;22266;52.340;4.962;2024-01-06T03:54:18;100683.34;;;4.97;91.40
36222;BME280;22266;52.340;4.962;2024-01-06T03:56:44;100683.53;;;4.95;90.89
36222;BME280;22266;52.340;4.962;2024-01-06T03:59:11;100680.19;;;4.93;91.39
36222;BME280;22266;52.340;4.962;2024-01-06T04:01:37;100696.22;;;5.02;90.99
36222;BME280;22266;52.340;4.962;2024-01-06T04:04:05;100694.22;;;5.04;91.88
36222;BME280;22266;52.340;4.962;2024-01-06T04:06:32;100706.03;;;5.01;91.45
36222;BME280;22266;52.340;4.962;2024-01-06T04:08:58;100703.34;;;4.93;91.18
36222;BME280;22266;52.340;4.962;2024-01-06T04:11:25;100712.03;;;4.95;91.84
36222;BME280;22266;52.340;4.962;2024-01-06T04:13:52;100716.38;;;4.96;92.05
36222;BME280;22266;52.340;4.962;2024-01-06T04:16:19;100720.56;;;4.99;92.97
36222;BME280;22266;52.340;4.962;2024-01-06T04:18:46;100721.56;;;5.06;92.94
36222;BME280;22266;52.340;4.962;2024-01-06T04:21:12;100719.09;;;5.12;92.67
36222;BME280;22266;52.340;4.962;2024-01-06T04:23:39;100727.59;;;5.08;92.33
36222;BME280;22266;52.340;4.962;2024-01-06T04:26:05;100722.91;;;5.10;92.39
36222;BME280;22266;52.340;4.962;2024-01-06T04:28:33;100722.91;;;5.10;92.54
36222;BME280;22266;52.340;4.962;2024-01-06T04:30:59;100725.59;;;5.10;92.38
36222;BME280;22266;52.340;4.962;2024-01-06T04:33:26;100729.94;;;5.11;91.76
36222;BME280;22266;52.340;4.962;2024-01-06T04:35:53;100732.75;;;5.09;92.52
36222;BME280;22266;52.340;4.962;2024-01-06T04:38:19;100725.56;;;5.02;91.17
36222;BME280;22266;52.340;4.962;2024-01-06T04:40:46;100732.56;;;4.94;92.00
36222;BME280;22266;52.340;4.962;2024-01-06T04:43:12;100742.84;;;4.89;92.24
36222;BME280;22266;52.340;4.962;2024-01-06T04:45:39;100747.88;;;4.92;92.42
36222;BME280;22266;52.340;4.962;2024-01-06T04:48:06;100748.69;;;4.93;92.63
36222;BME280;22266;52.340;4.962;2024-01-06T04:50:33;100750.31;;;4.86;92.37
36222;BME280;22266;52.340;4.962;2024-01-06T04:52:59;100750.19;;;4.87;92.75
36222;BME280;22266;52.340;4.962;2024-01-06T04:55:26;100752.69;;;4.89;92.49
36222;BME280;22266;52.340;4.962;2024-01-06T04:57:52;100761.50;;;4.89;92.60
36222;BME280;22266;52.340;4.962;2024-01-06T05:00:19;100756.66;;;4.85;92.90
36222;BME280;22266;52.340;4.962;2024-01-06T05:02:46;100756.03;;;4.91;92.95
36222;BME280;22266;52.340;4.962;2024-01-06T05:05:12;100762.50;;;4.88;92.32
36222;BME280;22266;52.340;4.962;2024-01-06T05:07:39;100769.34;;;4.83;92.45
36222;BME280;22266;52.340;4.962;2024-01-06T05:10:06;100764.63;;;4.77;92.67
36222;BME280;22266;52.340;4.962;2024-01-06T05:12:33;100774.75;;;4.73;91.94
36222;BME280;22266;52.340;4.962;2024-01-06T05:15:00;100767.75;;;4.72;92.61
36222;BME280;22266;52.340;4.962;2024-01-06T05:17:26;100778.03;;;4.59;92.21
36222;BME280;22266;52.340;4.962;2024-01-06T05:19:53;100782.03;;;4.63;92.92
36222;BME280;22266;52.340;4.962;2024-01-06T05:22:20;100775.50;;;4.57;92.94
36222;BME280;22266;52.340;4.962;2024-01-06T05:24:47;100782.59;;;4.49;92.75
36222;BME280;22266;52.340;4.962;2024-01-06T05:27:13;100775.78;;;4.46;92.94
36222;BME280;22266;52.340;4.962;2024-01-06T05:29:40;100789.75;;;4.48;93.84
36222;BME280;22266;52.340;4.962;2024-01-06T05:32:06;100786.63;;;4.53;93.92
36222;BME280;22266;52.340;4.962;2024-01-06T05:34:33;100792.66;;;4.55;93.69
36222;BME280;22266;52.340;4.962;2024-01-06T05:37:00;100789.47;;;4.51;93.71
36222;BME280;22266;52.340;4.962;2024-01-06T05:39:27;100794.50;;;4.54;94.19
36222;BME280;22266;52.340;4.962;2024-01-06T05:41:54;100800.44;;;4.48;93.67
36222;BME280;22266;52.340;4.962;2024-01-06T05:44:20;100803.56;;;4.43;93.88
36222;BME280;22266;52.340;4.962;2024-01-06T05:46:47;100802.56;;;4.44;94.22
36222;BME280;22266;52.340;4.962;2024-01-06T05:49:13;100803.56;;;4.43;93.83
36222;BME280;22266;52.340;4.962;2024-01-06T05:51:44;100803.03;;;4.40;93.38
36222;BME280;22266;52.340;4.962;2024-01-06T05:54:11;100811.72;;;4.42;94.50
36222;BME280;22266;52.340;4.962;2024-01-06T05:56:39;100822.69;;;4.39;93.34
36222;BME280;22266;52.340;4.962;2024-01-06T05:59:06;100813.31;;;4.35;93.70
36222;BME280;22266;52.340;4.962;2024-01-06T06:01:32;100823.69;;;4.38;94.45
36222;BME280;22266;52.340;4.962;2024-01-06T06:03:59;100831.50;;;4.39;94.25
36222;BME280;22266;52.340;4.962;2024-01-06T06:06:26;100837.00;;;4.38;93.88
36222;BME280;22266;52.340;4.962;2024-01-06T06:08:52;100834.66;;;4.35;93.53
36222;BME280;22266;52.340;4.962;2024-01-06T06:11:19;100843.09;;;4.30;93.26
36222;BME280;22266;52.340;4.962;2024-01-06T06:13:45;100850.09;;;4.31;93.60
36222;BME280;22266;52.340;4.962;2024-01-06T06:16:12;100857.09;;;4.32;93.54
36222;BME280;22266;52.340;4.962;2024-01-06T06:18:39;100855.78;;;4.36;93.77
36222;BME280;22266;52.340;4.962;2024-01-06T06:21:07;100869.66;;;4.40;93.59
36222;BME280;22266;52.340;4.962;2024-01-06T06:23:36;100870.41;;;4.32;93.33
36222;BME280;22266;52.340;4.962;2024-01-06T06:26:06;100866.63;;;4.35;93.74
36222;BME280;22266;52.340;4.962;2024-01-06T06:28:34;100875.63;;;4.34;93.38
36222;BME280;22266;52.340;4.962;2024-01-06T06:31:01;100883.97;;;4.39;93.89
36222;BME280;22266;52.340;4.962;2024-01-06T06:33:28;100884.13;;;4.37;93.74
36222;BME280;22266;52.340;4.962;2024-01-06T06:35:55;100887.84;;;4.44;93.67
36222;BME280;22266;52.340;4.962;2024-01-06T06:38:22;100897.22;;;4.49;92.88
36222;BME280;22266;52.340;4.962;2024-01-06T06:40:48;100890.22;;;4.47;93.12
36222;BME280;22266;52.340;4.962;2024-01-06T06:43:15;100893.41;;;4.51;91.97
36222;BME280;22266;52.340;4.962;2024-01-06T06:45:45;100896.75;;;4.53;92.76
36222;BME280;22266;52.340;4.962;2024-01-06T06:48:12;100906.50;;;4.44;91.71
36222;BME280;22266;52.340;4.962;2024-01-06T06:50:38;100900.09;;;4.37;92.24
36222;BME280;22266;52.340;4.962;2024-01-06T06:53:08;100904.47;;;4.38;92.44
36222;BME280;22266;52.340;4.962;2024-01-06T06:55:35;100916.34;;;4.26;92.49
36222;BME280;22266;52.340;4.962;2024-01-06T06:58:04;100912.53;;;4.29;92.37
36222;BME280;22266;52.340;4.962;2024-01-06T07:00:31;100919.38;;;4.31;92.32
36222;BME280;22266;52.340;4.962;2024-01-06T07:02:58;100928.22;;;4.32;92.51
36222;BME280;22266;52.340;4.962;2024-01-06T07:05:25;100932.16;;;4.28;91.85
36222;BME280;22266;52.340;4.962;2024-01-06T07:07:51;100929.03;;;4.32;92.62
36222;BME280;22266;52.340;4.962;2024-01-06T07:10:18;100938.94;;;4.40;93.05
36222;BME280;22266;52.340;4.962;2024-01-06T07:12:44;100940.63;;;4.41;91.70
36222;BME280;22266;52.340;4.962;2024-01-06T07:15:11;100936.03;;;4.33;91.83
36222;BME280;22266;52.340;4.962;2024-01-06T07:17:38;100949.81;;;4.29;92.24
36222;BME280;22266;52.340;4.962;2024-01-06T07:20:08;100946.31;;;4.28;92.00
36222;BME280;22266;52.340;4.962;2024-01-06T07:22:35;100946.41;;;4.36;92.90
36222;BME280;22266;52.340;4.962;2024-01-06T07:25:02;100959.34;;;4.31;92.84
36222;BME280;22266;52.340;4.962;2024-01-06T07:27:29;100966.13;;;4.26;92.20
36222;BME280;22266;52.340;4.962;2024-01-06T07:29:56;100963.75;;;4.22;92.93
36222;BME280;22266;52.340;4.962;2024-01-06T07:32:23;100964.97;;;4.28;92.91
36222;BME280;22266;52.340;4.962;2024-01-06T07:34:49;100973.13;;;4.27;93.12
36222;BME280;22266;52.340;4.962;2024-01-06T07:37:16;100981.06;;;4.36;93.31
36222;BME280;22266;52.340;4.962;2024-01-06T07:39:43;100987.09;;;4.38;92.70
36222;BME280;22266;52.340;4.962;2024-01-06T07:42:09;100990.28;;;4.42;92.68
36222;BME280;22266;52.340;4.962;2024-01-06T07:44:36;100986.09;;;4.39;92.33
36222;BME280;22266;52.340;4.962;2024-01-06T07:47:03;100992.63;;;4.45;93.15
36222;BME280;22266;52.340;4.962;2024-01-06T07:49:31;100996.13;;;4.45;91.86
36222;BME280;22266;52.340;4.962;2024-01-06T07:51:58;101008.63;;;4.45;92.70
36222;BME280;22266;52.340;4.962;2024-01-06T07:54:25;101010.31;;;4.46;92.43
36222;BME280;22266;52.340;4.962;2024-01-06T07:56:52;101011.19;;;4.37;92.20
36222;BME280;22266;52.340;4.962;2024-01-06T07:59:18;101012.50;;;4.33;92.51
36222;BME280;22266;52.340;4.962;2024-01-06T08:01:45;101014.03;;;4.35;92.83
36222;BME280;22266;52.340;4.962;2024-01-06T08:04:11;101017.06;;;4.40;92.53
36222;BME280;22266;52.340;4.962;2024-01-06T08:06:38;101027.06;;;4.38;92.29
36222;BME280;22266;52.340;4.962;2024-01-06T08:09:05;101027.44;;;4.43;92.72
36222;BME280;22266;52.340;4.962;2024-01-06T08:11:32;101032.97;;;4.32;91.27
36222;BME280;22266;52.340;4.962;2024-01-06T08:13:58;101039.69;;;4.36;92.37
36222;BME280;22266;52.340;4.962;2024-01-06T08:16:25;101039.69;;;4.36;92.10
36222;BME280;22266;52.340;4.962;2024-01-06T08:18:52;101040.38;;;4.38;92.27
36222;BME280;22266;52.340;4.962;2024-01-06T08:21:18;101047.94;;;4.43;92.10
36222;BME280;22266;52.340;4.962;2024-01-06T08:23:45;101054.09;;;4.43;91.60
36222;BME280;22266;52.340;4.962;2024-01-06T08:26:12;101052.28;;;4.44;91.48
36222;BME280;22266;52.340;4.962;2024-01-06T08:28:39;101058.81;;;4.50;91.65
36222;BME280;22266;52.340;4.962;2024-01-06T08:31:05;101061.94;;;4.45;91.77
36222;BME280;22266;52.340;4.962;2024-01-06T08:33:32;101063.63;;;4.46;91.57
36222;BME280;22266;52.340;4.962;2024-01-06T08:35:59;101059.72;;;4.40;91.06
36222;BME280;22266;52.340;4.962;2024-01-06T08:38:26;101067.03;;;4.38;90.82
36222;BME280;22266;52.340;4.962;2024-01-06T08:40:53;101065.22;;;4.39;91.07
36222;BME280;22266;52.340;4.962;2024-01-06T08:43:20;101070.38;;;4.40;91.35
36222;BME280;22266;52.340;4.962;2024-01-06T08:45:47;101084.88;;;4.38;90.81
36222;BME280;22266;52.340;4.962;2024-01-06T08:48:14;101080.75;;;4.43;91.03
36222;BME280;22266;52.340;4.962;2024-01-06T08:50:42;101081.88;;;4.41;90.63
36222;BME280;22266;52.340;4.962;2024-01-06T08:53:08;101087.75;;;4.44;91.55
36222;BME280;22266;52.340;4.962;2024-01-06T08:55:35;101090.22;;;4.28;90.43
36222;BME280;22266;52.340;4.962;2024-01-06T08:58:02;101095.84;;;4.25;90.05
36222;BME280;22266;52.340;4.962;2024-01-06T09:00:28;101096.84;;;4.24;90.28
36222;BME280;22266;52.340;4.962;2024-01-06T09:02:56;101097.53;;;4.26;89.65
36222;BME280;22266;52.340;4.962;2024-01-06T09:05:22;101103.81;;;4.25;90.74
36222;BME280;22266;52.340;4.962;2024-01-06T09:07:49;101107.78;;;4.21;90.05
36222;BME280;22266;52.340;4.962;2024-01-06T09:10:21;101115.09;;;4.19;90.37
36222;BME280;22266;52.340;4.962;2024-01-06T09:12:47;101109.38;;;4.14;90.25
36222;BME280;22266;52.340;4.962;2024-01-06T09:15:14;101128.41;;;4.19;90.78
36222;BME280;22266;52.340;4.962;2024-01-06T09:17:41;101117.31;;;4.24;91.53
36222;BME280;22266;52.340;4.962;2024-01-06T09:20:08;101123.63;;;4.22;90.02
36222;BME280;22266;52.340;4.962;2024-01-06T09:22:35;101121.25;;;4.19;90.41
36222;BME280;22266;52.340;4.962;2024-01-06T09:25:01;101133.75;;;4.19;90.70
36222;BME280;22266;52.340;4.962;2024-01-06T09:27:28;101129.97;;;4.21;90.82
36222;BME280;22266;52.340;4.962;2024-01-06T09:29:54;101136.56;;;4.17;90.96
36222;BME280;22266;52.340;4.962;2024-01-06T09:32:21;101140.75;;;4.20;90.23
36222;BME280;22266;52.340;4.962;2024-01-06T09:34:49;101140.00;;;4.28;91.13
36222;BME280;22266;52.340;4.962;2024-01-06T09:37:16;101147.13;;;4.37;90.59
36222;BME280;22266;52.340;4.962;2024-01-06T09:39:43;101151.78;;;4.35;90.62
36222;BME280;22266;52.340;4.962;2024-01-06T09:42:09;101155.44;;;4.34;90.01
36222;BME280;22266;52.340;4.962;2024-01-06T09:44:38;101146.22;;;4.18;89.85
36222;BME280;22266;52.340;4.962;2024-01-06T09:47:05;101161.06;;;4.31;91.22
36222;BME280;22266;52.340;4.962;2024-01-06T09:49:32;101161.22;;;4.57;95.86
36222;BME280;22266;52.340;4.962;2024-01-06T09:52:02;101171.84;;;4.66;93.05
36222;BME280;22266;52.340;4.962;2024-01-06T09:54:34;101168.91;;;4.60;91.21
36222;BME280;22266;52.340;4.962;2024-01-06T09:57:04;101182.31;;;4.50;90.48
36222;BME280;22266;52.340;4.962;2024-01-06T09:59:33;101180.09;;;4.36;90.27
36222;BME280;22266;52.340;4.962;2024-01-06T10:02:01;101180.69;;;4.30;91.19
36222;BME280;22266;52.340;4.962;2024-01-06T10:04:30;101180.50;;;4.41;90.77
36222;BME280;22266;52.340;4.962;2024-01-06T10:06:56;101176.09;;;4.50;90.83
36222;BME280;22266;52.340;4.962;2024-01-06T10:09:27;101186.75;;;4.59;90.19
36222;BME280;22266;52.340;4.962;2024-01-06T10:11:55;101198.81;;;4.63;90.76
36222;BME280;22266;52.340;4.962;2024-01-06T10:14:24;101201.50;;;4.54;90.52
36222;BME280;22266;52.340;4.962;2024-01-06T10:16:54;101195.31;;;4.63;91.03
36222;BME280;22266;52.340;4.962;2024-01-06T10:19:20;101195.00;;;4.66;90.20
36222;BME280;22266;52.340;4.962;2024-01-06T10:21:47;101202.16;;;4.65;90.30
36222;BME280;22266;52.340;4.962;2024-01-06T10:24:18;101204.13;;;4.63;90.06
36222;BME280;22266;52.340;4.962;2024-01-06T10:26:45;101206.97;;;4.62;89.74
36222;BME280;22266;52.340;4.962;2024-01-06T10:29:15;101201.06;;;4.58;89.66
36222;BME280;22266;52.340;4.962;2024-01-06T10:31:42;101204.16;;;4.54;89.67
36222;BME280;22266;52.340;4.962;2024-01-06T10:34:09;101213.44;;;4.50;89.82
36222;BME280;22266;52.340;4.962;2024-01-06T10:36:36;101209.81;;;4.51;90.39
36222;BME280;22266;52.340;4.962;2024-01-06T10:39:03;101212.34;;;4.42;90.11
36222;BME280;22266;52.340;4.962;2024-01-06T10:41:30;101218.91;;;4.48;90.14
36222;BME280;22266;52.340;4.962;2024-01-06T10:43:58;101215.69;;;4.54;90.59
36222;BME280;22266;52.340;4.962;2024-01-06T10:46:28;101218.38;;;4.44;89.96
36222;BME280;22266;52.340;4.962;2024-01-06T10:48:57;101223.81;;;4.53;89.98
36222;BME280;22266;52.340;4.962;2024-01-06T10:51:25;101229.00;;;4.54;90.13
36222;BME280;22266;52.340;4.962;2024-01-06T10:53:53;101224.66;;;4.53;89.75
36222;BME280;22266;52.340;4.962;2024-01-06T10:56:20;101232.63;;;4.53;89.41
36222;BME280;22266;52.340;4.962;2024-01-06T10:58:47;101235.88;;;4.57;89.70
36222;BME280;22266;52.340;4.962;2024-01-06T11:01:21;101228.84;;;4.56;89.01
36222;BME280;22266;52.340;4.962;2024-01-06T11:03:53;101231.38;;;4.57;88.70
36222;BME280;22266;52.340;4.962;2024-01-06T11:06:21;101230.81;;;4.54;88.61
36222;BME280;22266;52.340;4.962;2024-01-06T11:08:57;101236.69;;;4.57;88.71
36222;BME280;22266;52.340;4.962;2024-01-06T11:11:26;101238.81;;;4.54;89.04
36222;BME280;22266;52.340;4.962;2024-01-06T11:13:53;101240.34;;;4.56;88.13
36222;BME280;22266;52.340;4.962;2024-01-06T11:16:36;101250.03;;;4.57;88.44
36222;BME280;22266;52.340;4.962;2024-01-06T11:19:42;101245.97;;;4.53;88.14
36222;BME280;22266;52.340;4.962;2024-01-06T11:24:51;101242.47;;;4.53;88.19
36222;BME280;22266;52.340;4.962;2024-01-06T11:27:24;101245.84;;;4.55;87.96
36222;BME280;22266;52.340;4.962;2024-01-06T11:29:53;101246.25;;;4.60;88.39
36222;BME280;22266;52.340;4.962;2024-01-06T11:32:33;101247.53;;;4.56;88.54
36222;BME280;22266;52.340;4.962;2024-01-06T11:35:10;101253.25;;;4.61;88.24
36222;BME280;22266;52.340;4.962;2024-01-06T11:42:47;101253.97;;;4.63;88.42
36222;BME280;22266;52.340;4.962;2024-01-06T11:45:14;101253.56;;;4.58;88.34
36222;BME280;22266;52.340;4.962;2024-01-06T11:47:47;101262.53;;;4.57;88.12
36222;BME280;22266;52.340;4.962;2024-01-06T11:50:15;101260.84;;;4.56;88.11
36222;BME280;22266;52.340;4.962;2024-01-06T11:52:41;101259.03;;;4.56;88.82
36222;BME280;22266;52.340;4.962;2024-01-06T11:55:09;101255.91;;;4.61;89.02
36222;BME280;22266;52.340;4.962;2024-01-06T11:57:36;101252.81;;;4.65;89.23
36222;BME280;22266;52.340;4.962;2024-01-06T12:00:04;101254.50;;;4.66;88.41
36222;BME280;22266;52.340;4.962;2024-01-06T12:02:32;101256.91;;;4.60;88.14
36222;BME280;22266;52.340;4.962;2024-01-06T12:04:58;101257.19;;;4.66;88.06
36222;BME280;22266;52.340;4.962;2024-01-06T12:07:25;101251.53;;;4.69;88.24
36222;BME280;22266;52.340;4.962;2024-01-06T12:10:01;101247.34;;;4.67;87.92
36222;BME280;22266;52.340;4.962;2024-01-06T12:12:28;101252.41;;;4.70;87.91
36222;BME280;22266;52.340;4.962;2024-01-06T12:14:55;101254.50;;;4.66;88.53
36222;BME280;22266;52.340;4.962;2024-01-06T12:17:21;101262.94;;;4.62;88.15
36222;BME280;22266;52.340;4.962;2024-01-06T12:19:48;101258.91;;;4.58;87.55
36222;BME280;22266;52.340;4.962;2024-01-06T12:22:15;101250.91;;;4.58;87.89
36222;BME280;22266;52.340;4.962;2024-01-06T12:24:42;101257.47;;;4.63;87.91
36222;BME280;22266;52.340;4.962;2024-01-06T12:27:09;101266.00;;;4.67;87.53
36222;BME280;22266;52.340;4.962;2024-01-06T12:29:40;101265.19;;;4.66;87.77
36222;BME280;22266;52.340;4.962;2024-01-06T12:32:09;101270.50;;;4.66;88.11
36222;BME280;22266;52.340;4.962;2024-01-06T12:34:36;101268.28;;;4.62;88.05
36222;BME280;22266;52.340;4.962;2024-01-06T12:37:03;101269.13;;;4.62;88.39
36222;BME280;22266;52.340;4.962;2024-01-06T12:39:30;101273.19;;;4.57;88.07
36222;BME280;22266;52.340;4.962;2024-01-06T12:41:57;101273.06;;;4.49;88.50
36222;BME280;22266;52.340;4.962;2024-01-06T12:44:26;101281.34;;;4.55;89.39
36222;BME280;22266;52.340;4.962;2024-01-06T12:46:54;101280.91;;;4.60;89.25
36222;BME280;22266;52.340;4.962;2024-01-06T12:49:21;101281.75;;;4.60;89.65
36222;BME280;22266;52.340;4.962;2024-01-06T12:51:47;101279.78;;;4.62;89.91
36222;BME280;22266;52.340;4.962;2024-01-06T12:54:14;101288.22;;;4.58;89.73
36222;BME280;22266;52.340;4.962;2024-01-06T12:56:41;101284.56;;;4.59;90.25
36222;BME280;22266;52.340;4.962;2024-01-06T12:59:07;101283.28;;;4.53;90.19
36222;BME280;22266;52.340;4.962;2024-01-06T13:01:34;101286.69;;;4.45;89.80
36222;BME280;22266;52.340;4.962;2024-01-06T13:04:02;101288.25;;;4.38;89.98
36222;BME280;22266;52.340;4.962;2024-01-06T13:06:28;101290.63;;;4.41;90.31
36222;BME280;22266;52.340;4.962;2024-01-06T13:08:56;101297.50;;;4.44;90.21